sensor_id;sensor_type;location;lat;lon;timestamp;temperature;humidity
40059;SHT31;25763;49.972;8.568;2022-11-15T00:01:19;10.48;83.71
40059;SHT31;25763;49.972;8.568;2022-11-15T00:03:45;10.46;83.61
40059;SHT31;25763;49.972;8.568;2022-11-15T00:06:11;10.51;83.53
40059;SHT31;25763;49.972;8.568;2022-11-15T00:08:37;10.51;83.47
40059;SHT31;25763;49.972;8.568;2022-11-15T00:11:02;10.52;83.36
40059;SHT31;25763;49.972;8.568;2022-11-15T00:13:28;10.52;83.39
40059;SHT31;25763;49.972;8.568;2022-11-15T00:16:00;10.57;83.36
40059;SHT31;25763;49.972;8.568;2022-11-15T00:18:26;10.62;83.27
40059;SHT31;25763;49.972;8.568;2022-11-15T00:20:52;10.65;83.33
40059;SHT31;25763;49.972;8.568;2022-11-15T00:23:17;10.62;83.34
40059;SHT31;25763;49.972;8.568;2022-11-15T00:25:43;10.64;83.33
40059;SHT31;25763;49.972;8.568;2022-11-15T00:28:08;10.59;83.39
40059;SHT31;25763;49.972;8.568;2022-11-15T00:30:33;10.42;83.26
40059;SHT31;25763;49.972;8.568;2022-11-15T00:33:06;10.38;83.15
40059;SHT31;25763;49.972;8.568;2022-11-15T00:35:33;10.31;83.29
40059;SHT31;25763;49.972;8.568;2022-11-15T00:37:59;10.31;83.38
40059;SHT31;25763;49.972;8.568;2022-11-15T00:40:24;10.26;83.41
40059;SHT31;25763;49.972;8.568;2022-11-15T00:42:50;10.14;83.67
40059;SHT31;25763;49.972;8.568;2022-11-15T00:45:15;10.02;83.90
40059;SHT31;25763;49.972;8.568;2022-11-15T00:47:44;10.05;84.05
40059;SHT31;25763;49.972;8.568;2022-11-15T00:50:10;10.08;84.10
40059;SHT31;25763;49.972;8.568;2022-11-15T00:52:35;10.05;84.14
40059;SHT31;25763;49.972;8.568;2022-11-15T00:55:01;10.08;84.07
40059;SHT31;25763;49.972;8.568;2022-11-15T00:57:26;9.92;84.59
40059;SHT31;25763;49.972;8.568;2022-11-15T00:59:51;10.02;84.42
40059;SHT31;25763;49.972;8.568;2022-11-15T01:02:17;10.03;84.20
40059;SHT31;25763;49.972;8.568;2022-11-15T01:04:42;9.93;84.51
40059;SHT31;25763;49.972;8.568;2022-11-15T01:07:07;9.93;84.56
40059;SHT31;25763;49.972;8.568;2022-11-15T01:09:33;9.83;84.80
40059;SHT31;25763;49.972;8.568;2022-11-15T01:11:58;9.91;84.75
40059;SHT31;25763;49.972;8.568;2022-11-15T01:14:24;9.93;84.64
40059;SHT31;25763;49.972;8.568;2022-11-15T01:16:49;9.89;84.65
40059;SHT31;25763;49.972;8.568;2022-11-15T01:19:14;9.86;84.70
40059;SHT31;25763;49.972;8.568;2022-11-15T01:21:40;9.85;84.74
40059;SHT31;25763;49.972;8.568;2022-11-15T01:24:05;9.81;84.77
40059;SHT31;25763;49.972;8.568;2022-11-15T01:26:31;9.81;84.92
40059;SHT31;25763;49.972;8.568;2022-11-15T01:28:56;9.79;84.97
40059;SHT31;25763;49.972;8.568;2022-11-15T01:31:21;9.82;84.91
40059;SHT31;25763;49.972;8.568;2022-11-15T01:33:48;9.67;85.26
40059;SHT31;25763;49.972;8.568;2022-11-15T01:36:19;9.59;85.82
40059;SHT31;25763;49.972;8.568;2022-11-15T01:38:46;9.71;85.61
40059;SHT31;25763;49.972;8.568;2022-11-15T01:41:20;9.72;85.44
40059;SHT31;25763;49.972;8.568;2022-11-15T01:43:49;9.64;85.77
40059;SHT31;25763;49.972;8.568;2022-11-15T01:48:50;9.75;85.58
40059;SHT31;25763;49.972;8.568;2022-11-15T01:51:18;9.82;85.43
40059;SHT31;25763;49.972;8.568;2022-11-15T01:53:46;9.83;85.46
40059;SHT31;25763;49.972;8.568;2022-11-15T01:56:17;9.78;85.47
40059;SHT31;25763;49.972;8.568;2022-11-15T01:58:43;9.83;85.50
40059;SHT31;25763;49.972;8.568;2022-11-15T02:01:11;9.91;85.25
40059;SHT31;25763;49.972;8.568;2022-11-15T02:03:49;9.89;85.23
40059;SHT31;25763;49.972;8.568;2022-11-15T02:06:17;9.85;85.42
40059;SHT31;25763;49.972;8.568;2022-11-15T02:08:44;9.91;85.27
40059;SHT31;25763;49.972;8.568;2022-11-15T02:11:10;9.95;85.18
40059;SHT31;25763;49.972;8.568;2022-11-15T02:13:36;10.00;85.23
40059;SHT31;25763;49.972;8.568;2022-11-15T02:16:27;10.00;85.12
40059;SHT31;25763;49.972;8.568;2022-11-15T02:19:22;9.91;85.33
40059;SHT31;25763;49.972;8.568;2022-11-15T02:22:21;10.02;85.33
40059;SHT31;25763;49.972;8.568;2022-11-15T02:36:25;9.99;84.81
40059;SHT31;25763;49.972;8.568;2022-11-15T02:38:54;9.93;84.88
40059;SHT31;25763;49.972;8.568;2022-11-15T02:41:35;9.79;85.09
40059;SHT31;25763;49.972;8.568;2022-11-15T02:44:11;9.82;85.01
40059;SHT31;25763;49.972;8.568;2022-11-15T02:46:45;9.77;85.03
40059;SHT31;25763;49.972;8.568;2022-11-15T02:49:33;9.69;85.11
40059;SHT31;25763;49.972;8.568;2022-11-15T02:51:59;9.62;85.25
40059;SHT31;25763;49.972;8.568;2022-11-15T02:54:29;9.59;85.30
40059;SHT31;25763;49.972;8.568;2022-11-15T02:56:59;9.57;85.40
40059;SHT31;25763;49.972;8.568;2022-11-15T02:59:43;9.57;85.43
40059;SHT31;25763;49.972;8.568;2022-11-15T03:02:15;9.52;85.45
40059;SHT31;25763;49.972;8.568;2022-11-15T03:04:51;9.41;85.93
40059;SHT31;25763;49.972;8.568;2022-11-15T03:10:05;9.50;85.90
40059;SHT31;25763;49.972;8.568;2022-11-15T03:12:41;9.51;85.89
40059;SHT31;25763;49.972;8.568;2022-11-15T03:15:10;9.50;85.94
40059;SHT31;25763;49.972;8.568;2022-11-15T03:17:46;9.43;86.43
40059;SHT31;25763;49.972;8.568;2022-11-15T03:20:15;9.40;86.65
40059;SHT31;25763;49.972;8.568;2022-11-15T03:22:43;9.39;86.81
40059;SHT31;25763;49.972;8.568;2022-11-15T03:25:12;9.48;86.65
40059;SHT31;25763;49.972;8.568;2022-11-15T03:27:42;9.48;86.43
40059;SHT31;25763;49.972;8.568;2022-11-15T03:30:08;9.44;86.50
40059;SHT31;25763;49.972;8.568;2022-11-15T03:32:38;9.44;86.42
40059;SHT31;25763;49.972;8.568;2022-11-15T03:37:34;9.50;86.42
40059;SHT31;25763;49.972;8.568;2022-11-15T03:40:02;9.55;86.33
40059;SHT31;25763;49.972;8.568;2022-11-15T03:42:33;9.58;86.25
40059;SHT31;25763;49.972;8.568;2022-11-15T03:45:14;9.59;86.13
40059;SHT31;25763;49.972;8.568;2022-11-15T03:48:07;9.62;86.00
40059;SHT31;25763;49.972;8.568;2022-11-15T03:50:35;9.62;85.95
40059;SHT31;25763;49.972;8.568;2022-11-15T03:53:01;9.61;85.96
40059;SHT31;25763;49.972;8.568;2022-11-15T03:55:27;9.64;85.93
40059;SHT31;25763;49.972;8.568;2022-11-15T03:57:55;9.58;85.97
40059;SHT31;25763;49.972;8.568;2022-11-15T04:00:21;9.68;85.88
40059;SHT31;25763;49.972;8.568;2022-11-15T04:02:47;9.65;86.08
40059;SHT31;25763;49.972;8.568;2022-11-15T04:05:12;9.71;85.89
40059;SHT31;25763;49.972;8.568;2022-11-15T04:07:37;9.74;85.80
40059;SHT31;25763;49.972;8.568;2022-11-15T04:10:03;9.77;85.71
40059;SHT31;25763;49.972;8.568;2022-11-15T04:12:32;9.67;85.99
40059;SHT31;25763;49.972;8.568;2022-11-15T04:15:32;9.74;85.99
40059;SHT31;25763;49.972;8.568;2022-11-15T04:17:52;9.79;85.75
40059;SHT31;25763;49.972;8.568;2022-11-15T04:20:21;9.79;85.62
40059;SHT31;25763;49.972;8.568;2022-11-15T04:23:09;9.77;85.70
40059;SHT31;25763;49.972;8.568;2022-11-15T04:25:55;9.71;86.13
40059;SHT31;25763;49.972;8.568;2022-11-15T04:28:21;9.59;86.27
40059;SHT31;25763;49.972;8.568;2022-11-15T04:30:47;9.57;86.45
40059;SHT31;25763;49.972;8.568;2022-11-15T04:33:13;9.67;86.35
40059;SHT31;25763;49.972;8.568;2022-11-15T04:35:39;9.64;86.25
40059;SHT31;25763;49.972;8.568;2022-11-15T04:38:06;9.72;86.05
40059;SHT31;25763;49.972;8.568;2022-11-15T04:40:31;9.78;85.88
40059;SHT31;25763;49.972;8.568;2022-11-15T04:42:57;9.74;86.03
40059;SHT31;25763;49.972;8.568;2022-11-15T04:45:22;9.72;85.99
40059;SHT31;25763;49.972;8.568;2022-11-15T04:47:47;9.75;85.94
40059;SHT31;25763;49.972;8.568;2022-11-15T04:50:14;9.83;85.79
40059;SHT31;25763;49.972;8.568;2022-11-15T04:52:49;9.88;85.73
40059;SHT31;25763;49.972;8.568;2022-11-15T04:55:14;9.92;85.69
40059;SHT31;25763;49.972;8.568;2022-11-15T04:57:40;9.89;85.66
40059;SHT31;25763;49.972;8.568;2022-11-15T05:00:09;9.88;85.61
40059;SHT31;25763;49.972;8.568;2022-11-15T05:02:35;9.91;85.57
40059;SHT31;25763;49.972;8.568;2022-11-15T05:05:19;9.95;85.69
40059;SHT31;25763;49.972;8.568;2022-11-15T05:07:44;9.99;85.71
40059;SHT31;25763;49.972;8.568;2022-11-15T05:10:10;9.96;85.91
40059;SHT31;25763;49.972;8.568;2022-11-15T05:12:35;9.99;85.74
40059;SHT31;25763;49.972;8.568;2022-11-15T05:15:01;10.02;85.72
40059;SHT31;25763;49.972;8.568;2022-11-15T05:17:26;9.99;85.81
40059;SHT31;25763;49.972;8.568;2022-11-15T05:19:51;10.00;85.75
40059;SHT31;25763;49.972;8.568;2022-11-15T05:22:18;10.06;85.72
40059;SHT31;25763;49.972;8.568;2022-11-15T05:24:43;10.09;85.63
40059;SHT31;25763;49.972;8.568;2022-11-15T05:27:08;10.12;85.54
40059;SHT31;25763;49.972;8.568;2022-11-15T05:29:34;10.10;85.53
40059;SHT31;25763;49.972;8.568;2022-11-15T05:31:59;10.13;85.50
40059;SHT31;25763;49.972;8.568;2022-11-15T05:34:24;10.21;85.36
40059;SHT31;25763;49.972;8.568;2022-11-15T05:36:52;10.24;85.35
40059;SHT31;25763;49.972;8.568;2022-11-15T05:39:17;10.28;85.40
40059;SHT31;25763;49.972;8.568;2022-11-15T05:41:46;10.33;85.35
40059;SHT31;25763;49.972;8.568;2022-11-15T05:44:14;10.38;85.26
40059;SHT31;25763;49.972;8.568;2022-11-15T05:46:42;10.40;85.19
40059;SHT31;25763;49.972;8.568;2022-11-15T05:49:11;10.41;85.11
40059;SHT31;25763;49.972;8.568;2022-11-15T05:51:38;10.41;85.20
40059;SHT31;25763;49.972;8.568;2022-11-15T05:54:04;10.44;85.16
40059;SHT31;25763;49.972;8.568;2022-11-15T05:56:30;10.45;85.29
40059;SHT31;25763;49.972;8.568;2022-11-15T05:58:56;10.46;85.37
40059;SHT31;25763;49.972;8.568;2022-11-15T06:01:23;10.54;85.41
40059;SHT31;25763;49.972;8.568;2022-11-15T06:03:49;10.54;85.57
40059;SHT31;25763;49.972;8.568;2022-11-15T06:06:15;10.58;85.56
40059;SHT31;25763;49.972;8.568;2022-11-15T06:08:40;10.64;85.59
40059;SHT31;25763;49.972;8.568;2022-11-15T06:11:06;10.64;85.40
40059;SHT31;25763;49.972;8.568;2022-11-15T06:13:33;10.65;85.39
40059;SHT31;25763;49.972;8.568;2022-11-15T06:15:59;10.62;85.44
40059;SHT31;25763;49.972;8.568;2022-11-15T06:18:24;10.67;85.47
40059;SHT31;25763;49.972;8.568;2022-11-15T06:20:50;10.65;85.34
40059;SHT31;25763;49.972;8.568;2022-11-15T06:23:15;10.67;85.30
40059;SHT31;25763;49.972;8.568;2022-11-15T06:25:40;10.65;85.33
40059;SHT31;25763;49.972;8.568;2022-11-15T06:28:06;10.65;85.43
40059;SHT31;25763;49.972;8.568;2022-11-15T06:30:31;10.68;85.49
40059;SHT31;25763;49.972;8.568;2022-11-15T06:33:04;10.79;85.36
40059;SHT31;25763;49.972;8.568;2022-11-15T06:35:32;10.75;85.40
40059;SHT31;25763;49.972;8.568;2022-11-15T06:38:03;10.79;85.22
40059;SHT31;25763;49.972;8.568;2022-11-15T06:40:28;10.76;85.22
40059;SHT31;25763;49.972;8.568;2022-11-15T06:42:58;10.76;85.30
40059;SHT31;25763;49.972;8.568;2022-11-15T06:45:24;10.73;85.37
40059;SHT31;25763;49.972;8.568;2022-11-15T06:47:50;10.67;85.61
40059;SHT31;25763;49.972;8.568;2022-11-15T06:50:15;10.59;85.85
40059;SHT31;25763;49.972;8.568;2022-11-15T06:52:41;10.54;85.97
40059;SHT31;25763;49.972;8.568;2022-11-15T06:55:07;10.64;85.85
40059;SHT31;25763;49.972;8.568;2022-11-15T06:57:33;10.68;85.62
40059;SHT31;25763;49.972;8.568;2022-11-15T06:59:58;10.65;85.63
40059;SHT31;25763;49.972;8.568;2022-11-15T07:02:23;10.73;85.42
40059;SHT31;25763;49.972;8.568;2022-11-15T07:04:49;10.75;85.22
40059;SHT31;25763;49.972;8.568;2022-11-15T07:07:14;10.79;84.95
40059;SHT31;25763;49.972;8.568;2022-11-15T07:09:40;10.79;84.94
40059;SHT31;25763;49.972;8.568;2022-11-15T07:12:05;10.79;84.80
40059;SHT31;25763;49.972;8.568;2022-11-15T07:14:30;10.80;84.91
40059;SHT31;25763;49.972;8.568;2022-11-15T07:16:56;10.83;85.16
40059;SHT31;25763;49.972;8.568;2022-11-15T07:19:21;10.76;85.64
40059;SHT31;25763;49.972;8.568;2022-11-15T07:21:46;10.85;85.71
40059;SHT31;25763;49.972;8.568;2022-11-15T07:24:12;10.94;85.55
40059;SHT31;25763;49.972;8.568;2022-11-15T07:26:37;11.15;85.25
40059;SHT31;25763;49.972;8.568;2022-11-15T07:29:03;11.25;84.64
40059;SHT31;25763;49.972;8.568;2022-11-15T07:31:28;11.24;84.21
40059;SHT31;25763;49.972;8.568;2022-11-15T07:33:54;11.21;84.38
40059;SHT31;25763;49.972;8.568;2022-11-15T07:36:19;11.31;84.38
40059;SHT31;25763;49.972;8.568;2022-11-15T07:38:44;11.38;84.24
40059;SHT31;25763;49.972;8.568;2022-11-15T07:41:10;11.44;84.19
40059;SHT31;25763;49.972;8.568;2022-11-15T07:43:35;11.44;84.33
40059;SHT31;25763;49.972;8.568;2022-11-15T07:46:05;11.51;84.35
40059;SHT31;25763;49.972;8.568;2022-11-15T07:48:31;11.52;84.28
40059;SHT31;25763;49.972;8.568;2022-11-15T07:50:56;11.58;84.03
40059;SHT31;25763;49.972;8.568;2022-11-15T07:53:21;11.52;84.00
40059;SHT31;25763;49.972;8.568;2022-11-15T07:55:46;11.55;84.11
40059;SHT31;25763;49.972;8.568;2022-11-15T07:58:13;11.63;84.24
40059;SHT31;25763;49.972;8.568;2022-11-15T08:00:38;11.66;84.40
40059;SHT31;25763;49.972;8.568;2022-11-15T08:03:09;11.55;84.19
40059;SHT31;25763;49.972;8.568;2022-11-15T08:05:36;11.67;84.01
40059;SHT31;25763;49.972;8.568;2022-11-15T08:08:02;11.76;83.77
40059;SHT31;25763;49.972;8.568;2022-11-15T08:10:28;11.74;83.59
40059;SHT31;25763;49.972;8.568;2022-11-15T08:13:12;11.71;83.42
40059;SHT31;25763;49.972;8.568;2022-11-15T08:15:38;11.83;83.42
40059;SHT31;25763;49.972;8.568;2022-11-15T08:18:06;11.69;83.03
40059;SHT31;25763;49.972;8.568;2022-11-15T08:20:33;11.76;83.09
40059;SHT31;25763;49.972;8.568;2022-11-15T08:23:01;11.86;82.91
40059;SHT31;25763;49.972;8.568;2022-11-15T08:25:28;11.95;82.72
40059;SHT31;25763;49.972;8.568;2022-11-15T08:27:55;12.04;82.62
40059;SHT31;25763;49.972;8.568;2022-11-15T08:30:21;12.12;82.57
40059;SHT31;25763;49.972;8.568;2022-11-15T08:32:48;12.25;82.49
40059;SHT31;25763;49.972;8.568;2022-11-15T08:35:14;12.20;81.74
40059;SHT31;25763;49.972;8.568;2022-11-15T08:37:39;12.21;81.78
40059;SHT31;25763;49.972;8.568;2022-11-15T08:40:06;12.22;81.63
40059;SHT31;25763;49.972;8.568;2022-11-15T08:42:31;12.22;81.41
40059;SHT31;25763;49.972;8.568;2022-11-15T08:44:57;12.25;81.47
40059;SHT31;25763;49.972;8.568;2022-11-15T08:47:22;12.21;81.28
40059;SHT31;25763;49.972;8.568;2022-11-15T08:49:48;12.30;81.24
40059;SHT31;25763;49.972;8.568;2022-11-15T08:52:14;12.38;81.62
40059;SHT31;25763;49.972;8.568;2022-11-15T08:54:39;12.38;81.53
40059;SHT31;25763;49.972;8.568;2022-11-15T08:57:05;12.39;81.44
40059;SHT31;25763;49.972;8.568;2022-11-15T08:59:31;12.47;81.61
40059;SHT31;25763;49.972;8.568;2022-11-15T09:01:56;12.56;81.30
40059;SHT31;25763;49.972;8.568;2022-11-15T09:04:21;12.59;81.02
40059;SHT31;25763;49.972;8.568;2022-11-15T09:06:47;12.55;80.76
40059;SHT31;25763;49.972;8.568;2022-11-15T09:09:12;12.42;79.88
40059;SHT31;25763;49.972;8.568;2022-11-15T09:11:37;12.55;80.33
40059;SHT31;25763;49.972;8.568;2022-11-15T09:14:03;12.59;80.24
40059;SHT31;25763;49.972;8.568;2022-11-15T09:16:30;12.55;80.07
40059;SHT31;25763;49.972;8.568;2022-11-15T09:18:55;12.47;80.00
40059;SHT31;25763;49.972;8.568;2022-11-15T09:21:21;12.65;80.34
40059;SHT31;25763;49.972;8.568;2022-11-15T09:23:46;12.70;80.19
40059;SHT31;25763;49.972;8.568;2022-11-15T09:26:12;12.71;79.88
40059;SHT31;25763;49.972;8.568;2022-11-15T09:28:38;12.73;80.15
40059;SHT31;25763;49.972;8.568;2022-11-15T09:31:07;12.84;80.34
40059;SHT31;25763;49.972;8.568;2022-11-15T09:33:32;12.77;79.89
40059;SHT31;25763;49.972;8.568;2022-11-15T09:36:04;12.85;80.29
40059;SHT31;25763;49.972;8.568;2022-11-15T09:38:30;12.84;80.60
40059;SHT31;25763;49.972;8.568;2022-11-15T09:41:13;12.84;80.29
40059;SHT31;25763;49.972;8.568;2022-11-15T09:44:05;12.80;80.03
40059;SHT31;25763;49.972;8.568;2022-11-15T09:46:43;12.78;80.11
40059;SHT31;25763;49.972;8.568;2022-11-15T09:49:13;12.82;80.10
40059;SHT31;25763;49.972;8.568;2022-11-15T09:51:43;12.84;80.34
40059;SHT31;25763;49.972;8.568;2022-11-15T09:54:35;13.04;80.88
40059;SHT31;25763;49.972;8.568;2022-11-15T09:57:13;13.06;80.19
40059;SHT31;25763;49.972;8.568;2022-11-15T10:05:20;13.01;79.60
40059;SHT31;25763;49.972;8.568;2022-11-15T10:10:55;12.97;79.86
40059;SHT31;25763;49.972;8.568;2022-11-15T10:15:47;12.73;79.94
40059;SHT31;25763;49.972;8.568;2022-11-15T10:20:48;12.68;80.34
40059;SHT31;25763;49.972;8.568;2022-11-15T10:23:16;12.77;80.66
40059;SHT31;25763;49.972;8.568;2022-11-15T10:25:42;12.81;80.66
40059;SHT31;25763;49.972;8.568;2022-11-15T10:28:30;12.82;80.64
40059;SHT31;25763;49.972;8.568;2022-11-15T10:30:58;12.92;80.72
40059;SHT31;25763;49.972;8.568;2022-11-15T10:41:19;12.97;80.36
40059;SHT31;25763;49.972;8.568;2022-11-15T10:43:45;12.95;80.23
40059;SHT31;25763;49.972;8.568;2022-11-15T10:46:26;12.95;80.43
40059;SHT31;25763;49.972;8.568;2022-11-15T10:48:51;13.04;80.52
40059;SHT31;25763;49.972;8.568;2022-11-15T10:51:24;12.97;80.67
40059;SHT31;25763;49.972;8.568;2022-11-15T10:53:59;12.92;80.85
40059;SHT31;25763;49.972;8.568;2022-11-15T10:56:26;12.97;80.97
40059;SHT31;25763;49.972;8.568;2022-11-15T10:58:56;13.06;81.09
40059;SHT31;25763;49.972;8.568;2022-11-15T11:01:25;13.22;81.23
40059;SHT31;25763;49.972;8.568;2022-11-15T11:04:17;13.18;81.01
40059;SHT31;25763;49.972;8.568;2022-11-15T11:06:57;13.08;81.47
40059;SHT31;25763;49.972;8.568;2022-11-15T11:09:34;13.05;81.27
40059;SHT31;25763;49.972;8.568;2022-11-15T11:12:02;13.12;81.21
40059;SHT31;25763;49.972;8.568;2022-11-15T11:14:29;13.08;81.66
40059;SHT31;25763;49.972;8.568;2022-11-15T11:19:59;13.12;81.14
40059;SHT31;25763;49.972;8.568;2022-11-15T11:22:32;13.14;81.07
40059;SHT31;25763;49.972;8.568;2022-11-15T11:27:43;13.34;81.14
40059;SHT31;25763;49.972;8.568;2022-11-15T11:35:51;13.65;79.93
40059;SHT31;25763;49.972;8.568;2022-11-15T11:41:42;13.71;79.80
40059;SHT31;25763;49.972;8.568;2022-11-15T11:44:30;13.91;79.57
40059;SHT31;25763;49.972;8.568;2022-11-15T11:47:11;13.78;79.07
40059;SHT31;25763;49.972;8.568;2022-11-15T11:50:00;13.92;80.04
40059;SHT31;25763;49.972;8.568;2022-11-15T11:52:34;13.91;79.08
40059;SHT31;25763;49.972;8.568;2022-11-15T11:55:20;13.82;79.07
40059;SHT31;25763;49.972;8.568;2022-11-15T12:00:21;13.91;79.20
40059;SHT31;25763;49.972;8.568;2022-11-15T12:02:56;14.06;78.83
40059;SHT31;25763;49.972;8.568;2022-11-15T12:10:48;13.92;79.06
40059;SHT31;25763;49.972;8.568;2022-11-15T12:13:18;14.00;79.09
40059;SHT31;25763;49.972;8.568;2022-11-15T12:15:56;14.20;78.89
40059;SHT31;25763;49.972;8.568;2022-11-15T12:18:23;14.18;78.49
40059;SHT31;25763;49.972;8.568;2022-11-15T12:21:02;14.14;78.13
40059;SHT31;25763;49.972;8.568;2022-11-15T12:23:40;14.27;78.31
40059;SHT31;25763;49.972;8.568;2022-11-15T12:26:11;14.41;78.14
40059;SHT31;25763;49.972;8.568;2022-11-15T12:28:42;14.27;77.59
40059;SHT31;25763;49.972;8.568;2022-11-15T12:31:19;14.45;77.82
40059;SHT31;25763;49.972;8.568;2022-11-15T12:33:47;14.40;77.86
40059;SHT31;25763;49.972;8.568;2022-11-15T12:39:02;14.26;78.06
40059;SHT31;25763;49.972;8.568;2022-11-15T12:41:29;14.21;78.99
40059;SHT31;25763;49.972;8.568;2022-11-15T12:43:55;14.28;78.79
40059;SHT31;25763;49.972;8.568;2022-11-15T12:46:58;14.18;78.58
40059;SHT31;25763;49.972;8.568;2022-11-15T12:59:57;14.16;79.73
40059;SHT31;25763;49.972;8.568;2022-11-15T13:02:33;14.27;79.93
40059;SHT31;25763;49.972;8.568;2022-11-15T13:22:45;14.21;80.52
40059;SHT31;25763;49.972;8.568;2022-11-15T13:25:18;14.34;80.67
40059;SHT31;25763;49.972;8.568;2022-11-15T13:27:50;14.23;80.54
40059;SHT31;25763;49.972;8.568;2022-11-15T13:30:20;14.17;79.87
40059;SHT31;25763;49.972;8.568;2022-11-15T13:32:47;14.08;79.93
40059;SHT31;25763;49.972;8.568;2022-11-15T13:35:27;14.10;79.95
40059;SHT31;25763;49.972;8.568;2022-11-15T13:37:54;14.10;79.64
40059;SHT31;25763;49.972;8.568;2022-11-15T13:40:27;14.09;79.48
40059;SHT31;25763;49.972;8.568;2022-11-15T13:42:56;14.02;79.19
40059;SHT31;25763;49.972;8.568;2022-11-15T13:45:22;13.98;79.10
40059;SHT31;25763;49.972;8.568;2022-11-15T13:47:55;14.09;79.39
40059;SHT31;25763;49.972;8.568;2022-11-15T13:50:27;14.03;78.68
40059;SHT31;25763;49.972;8.568;2022-11-15T13:52:59;14.09;78.92
40059;SHT31;25763;49.972;8.568;2022-11-15T13:55:29;14.13;78.78
40059;SHT31;25763;49.972;8.568;2022-11-15T13:57:57;14.09;78.59
40059;SHT31;25763;49.972;8.568;2022-11-15T14:00:32;14.02;78.17
40059;SHT31;25763;49.972;8.568;2022-11-15T14:03:18;14.08;77.95
40059;SHT31;25763;49.972;8.568;2022-11-15T14:05:59;14.10;78.35
40059;SHT31;25763;49.972;8.568;2022-11-15T14:08:27;14.03;77.72
40059;SHT31;25763;49.972;8.568;2022-11-15T14:11:17;14.05;77.58
40059;SHT31;25763;49.972;8.568;2022-11-15T14:16:42;14.03;77.16
40059;SHT31;25763;49.972;8.568;2022-11-15T14:24:42;14.02;77.29
40059;SHT31;25763;49.972;8.568;2022-11-15T14:27:27;13.99;77.45
40059;SHT31;25763;49.972;8.568;2022-11-15T14:29:53;13.96;77.13
40059;SHT31;25763;49.972;8.568;2022-11-15T14:32:21;13.99;77.32
40059;SHT31;25763;49.972;8.568;2022-11-15T14:34:58;14.05;77.89
40059;SHT31;25763;49.972;8.568;2022-11-15T14:39:51;13.95;77.05
40059;SHT31;25763;49.972;8.568;2022-11-15T14:42:17;13.93;77.36
40059;SHT31;25763;49.972;8.568;2022-11-15T14:44:43;13.92;77.67
40059;SHT31;25763;49.972;8.568;2022-11-15T14:47:08;13.91;77.70
40059;SHT31;25763;49.972;8.568;2022-11-15T14:49:34;13.86;77.64
40059;SHT31;25763;49.972;8.568;2022-11-15T14:51:59;13.83;77.73
40059;SHT31;25763;49.972;8.568;2022-11-15T14:54:25;13.83;77.97
40059;SHT31;25763;49.972;8.568;2022-11-15T14:56:50;13.83;78.03
40059;SHT31;25763;49.972;8.568;2022-11-15T14:59:15;13.79;77.90
40059;SHT31;25763;49.972;8.568;2022-11-15T15:01:41;13.77;78.06
40059;SHT31;25763;49.972;8.568;2022-11-15T15:04:06;13.74;77.98
40059;SHT31;25763;49.972;8.568;2022-11-15T15:06:31;13.74;78.11
40059;SHT31;25763;49.972;8.568;2022-11-15T15:08:57;13.73;78.32
40059;SHT31;25763;49.972;8.568;2022-11-15T15:11:25;13.70;78.44
40059;SHT31;25763;49.972;8.568;2022-11-15T15:13:52;13.65;78.70
40059;SHT31;25763;49.972;8.568;2022-11-15T15:16:18;13.62;79.00
40059;SHT31;25763;49.972;8.568;2022-11-15T15:18:44;13.57;79.10
40059;SHT31;25763;49.972;8.568;2022-11-15T15:21:24;13.61;79.10
40059;SHT31;25763;49.972;8.568;2022-11-15T15:23:50;13.54;79.27
40059;SHT31;25763;49.972;8.568;2022-11-15T15:26:16;13.54;79.27
40059;SHT31;25763;49.972;8.568;2022-11-15T15:28:42;13.48;79.44
40059;SHT31;25763;49.972;8.568;2022-11-15T15:31:09;13.53;79.44
40059;SHT31;25763;49.972;8.568;2022-11-15T15:33:35;13.46;79.67
40059;SHT31;25763;49.972;8.568;2022-11-15T15:36:00;13.36;80.29
40059;SHT31;25763;49.972;8.568;2022-11-15T15:38:26;13.34;80.30
40059;SHT31;25763;49.972;8.568;2022-11-15T15:40:51;13.32;80.89
40059;SHT31;25763;49.972;8.568;2022-11-15T15:43:17;13.39;80.82
40059;SHT31;25763;49.972;8.568;2022-11-15T15:45:42;13.22;81.29
40059;SHT31;25763;49.972;8.568;2022-11-15T15:48:14;13.11;81.44
40059;SHT31;25763;49.972;8.568;2022-11-15T15:50:40;13.12;81.25
40059;SHT31;25763;49.972;8.568;2022-11-15T15:53:09;13.18;80.96
40059;SHT31;25763;49.972;8.568;2022-11-15T15:55:36;13.26;80.91
40059;SHT31;25763;49.972;8.568;2022-11-15T15:58:01;13.26;81.07
40059;SHT31;25763;49.972;8.568;2022-11-15T16:00:27;13.24;81.34
40059;SHT31;25763;49.972;8.568;2022-11-15T16:02:53;13.24;81.23
40059;SHT31;25763;49.972;8.568;2022-11-15T16:05:19;13.27;81.46
40059;SHT31;25763;49.972;8.568;2022-11-15T16:07:44;13.19;81.48
40059;SHT31;25763;49.972;8.568;2022-11-15T16:12:47;13.18;81.58
40059;SHT31;25763;49.972;8.568;2022-11-15T16:15:14;13.19;81.70
40059;SHT31;25763;49.972;8.568;2022-11-15T16:17:44;13.15;81.74
40059;SHT31;25763;49.972;8.568;2022-11-15T16:21:10;13.15;81.72
40059;SHT31;25763;49.972;8.568;2022-11-15T16:23:10;13.05;82.01
40059;SHT31;25763;49.972;8.568;2022-11-15T16:25:46;13.05;82.15
40059;SHT31;25763;49.972;8.568;2022-11-15T16:28:26;13.01;82.19
40059;SHT31;25763;49.972;8.568;2022-11-15T16:31:11;12.99;82.19
40059;SHT31;25763;49.972;8.568;2022-11-15T16:33:37;12.99;82.27
40059;SHT31;25763;49.972;8.568;2022-11-15T16:36:05;12.95;82.24
40059;SHT31;25763;49.972;8.568;2022-11-15T16:38:30;12.89;82.23
40059;SHT31;25763;49.972;8.568;2022-11-15T16:40:56;12.82;82.52
40059;SHT31;25763;49.972;8.568;2022-11-15T16:43:21;12.80;82.49
40059;SHT31;25763;49.972;8.568;2022-11-15T16:45:48;12.81;82.41
40059;SHT31;25763;49.972;8.568;2022-11-15T16:48:25;12.78;82.41
40059;SHT31;25763;49.972;8.568;2022-11-15T16:50:54;12.85;82.46
40059;SHT31;25763;49.972;8.568;2022-11-15T16:53:19;12.87;82.48
40059;SHT31;25763;49.972;8.568;2022-11-15T16:55:45;12.81;82.51
40059;SHT31;25763;49.972;8.568;2022-11-15T16:58:10;12.78;82.47
40059;SHT31;25763;49.972;8.568;2022-11-15T17:00:36;12.74;82.69
40059;SHT31;25763;49.972;8.568;2022-11-15T17:03:01;12.70;82.89
40059;SHT31;25763;49.972;8.568;2022-11-15T17:05:28;12.68;82.76
40059;SHT31;25763;49.972;8.568;2022-11-15T17:07:53;12.64;82.74
40059;SHT31;25763;49.972;8.568;2022-11-15T17:10:23;12.63;82.95
40059;SHT31;25763;49.972;8.568;2022-11-15T17:12:49;12.60;83.00
40059;SHT31;25763;49.972;8.568;2022-11-15T17:15:15;12.53;83.09
40059;SHT31;25763;49.972;8.568;2022-11-15T17:17:41;12.53;83.13
40059;SHT31;25763;49.972;8.568;2022-11-15T17:20:14;12.49;83.14
40059;SHT31;25763;49.972;8.568;2022-11-15T17:22:39;12.43;83.27
40059;SHT31;25763;49.972;8.568;2022-11-15T17:25:05;12.40;83.28
40059;SHT31;25763;49.972;8.568;2022-11-15T17:27:31;12.39;83.37
40059;SHT31;25763;49.972;8.568;2022-11-15T17:29:56;12.38;83.38
40059;SHT31;25763;49.972;8.568;2022-11-15T17:32:22;12.35;83.46
40059;SHT31;25763;49.972;8.568;2022-11-15T17:34:47;12.35;83.43